Time;durP1;ratioP1;P1;durP2;ratioP2;P2;SDS_P1;SDS_P2;PMS_P1;PMS_P2;Temp;Humidity;BMP_temperature;BMP_pressure;BME280_temperature;BME280_humidity;BME280_pressure;Samples;Min_cycle;Max_cycle;Signal;HPM_P1;HPM_P2
2023/07/22 00:01:48;;;;;;;9.68;5.97;;;;;;;;;;5033454;28;20393;-78
2023/07/22 00:04:15;;;;;;;9.15;5.53;;;;;;;;;;5031161;28;20135;-78
2023/07/22 00:06:40;;;;;;;8.70;5.65;;;;;;;;;;5030774;28;20029;-78
2023/07/22 00:09:05;;;;;;;9.15;5.63;;;;;;;;;;5032231;28;20025;-78
2023/07/22 00:11:31;;;;;;;9.10;5.72;;;;;;;;;;5033032;28;20067;-78
2023/07/22 00:13:57;;;;;;;8.98;5.88;;;;;;;;;;5034350;28;20531;-78
2023/07/22 00:16:23;;;;;;;8.43;5.75;;;;;;;;;;5034559;28;20033;-78
2023/07/22 00:18:49;;;;;;;9.02;5.75;;;;;;;;;;5033034;28;20025;-78
2023/07/22 00:21:15;;;;;;;8.73;6.05;;;;;;;;;;5033768;28;20068;-78
2023/07/22 00:23:40;;;;;;;7.85;5.55;;;;;;;;;;5032730;28;20048;-78
2023/07/22 00:26:06;;;;;;;8.50;5.72;;;;;;;;;;5034365;28;20112;-77
2023/07/22 00:28:31;;;;;;;10.25;6.40;;;;;;;;;;5032644;28;20029;-78
2023/07/22 00:30:57;;;;;;;9.05;5.97;;;;;;;;;;5034487;28;20052;-78
2023/07/22 00:33:23;;;;;;;9.48;5.63;;;;;;;;;;5032898;28;20488;-78
2023/07/22 00:35:51;;;;;;;8.25;6.00;;;;;;;;;;5034137;28;20018;-78
2023/07/22 00:38:17;;;;;;;8.40;6.00;;;;;;;;;;5031027;28;20029;-79
2023/07/22 00:40:43;;;;;;;9.25;6.22;;;;;;;;;;5036180;28;20110;-79
2023/07/22 00:43:09;;;;;;;11.07;6.38;;;;;;;;;;5032669;28;20439;-78
2023/07/22 00:45:34;;;;;;;10.02;6.20;;;;;;;;;;5033763;28;20104;-78
2023/07/22 00:48:00;;;;;;;8.68;5.80;;;;;;;;;;5033693;28;20041;-78
2023/07/22 00:50:26;;;;;;;9.93;6.55;;;;;;;;;;5033631;28;20021;-78
2023/07/22 00:52:52;;;;;;;9.95;6.38;;;;;;;;;;5033664;28;20500;-78
2023/07/22 00:55:18;;;;;;;9.68;6.28;;;;;;;;;;5032869;28;20492;-78
2023/07/22 00:57:43;;;;;;;9.20;6.22;;;;;;;;;;5033581;28;20029;-78
2023/07/22 01:00:11;;;;;;;9.82;6.80;;;;;;;;;;5032331;28;20115;-78
2023/07/22 01:02:40;;;;;;;10.48;6.90;;;;;;;;;;5024419;28;20175;-78
2023/07/22 01:05:06;;;;;;;10.23;6.10;;;;;;;;;;5033255;28;20095;-78
2023/07/22 01:07:32;;;;;;;10.35;6.75;;;;;;;;;;5031915;28;20037;-78
2023/07/22 01:10:00;;;;;;;12.40;7.28;;;;;;;;;;5031805;28;20029;-80
2023/07/22 01:12:25;;;;;;;10.70;7.13;;;;;;;;;;5032317;28;20041;-79
2023/07/22 01:14:51;;;;;;;11.27;6.65;;;;;;;;;;5033234;28;20021;-78
2023/07/22 01:17:18;;;;;;;9.80;6.50;;;;;;;;;;5032095;28;20393;-78
2023/07/22 01:19:44;;;;;;;10.27;6.82;;;;;;;;;;5031815;28;20055;-78
2023/07/22 01:22:12;;;;;;;10.27;7.13;;;;;;;;;;5023899;28;20096;-78
2023/07/22 01:24:38;;;;;;;11.13;7.63;;;;;;;;;;5032990;28;20473;-78
2023/07/22 01:27:08;;;;;;;11.50;7.28;;;;;;;;;;5032970;28;20028;-78
2023/07/22 01:29:34;;;;;;;12.40;8.05;;;;;;;;;;5032345;28;20410;-78
2023/07/22 01:31:59;;;;;;;12.50;7.53;;;;;;;;;;5032931;28;20112;-78
2023/07/22 01:34:25;;;;;;;12.70;8.02;;;;;;;;;;5031898;28;20053;-78
2023/07/22 01:36:50;;;;;;;13.77;8.20;;;;;;;;;;5032842;28;20036;-78
2023/07/22 01:39:16;;;;;;;14.48;8.20;;;;;;;;;;5031543;28;20123;-78
2023/07/22 01:41:43;;;;;;;11.27;7.93;;;;;;;;;;5031667;28;20017;-77
2023/07/22 01:44:09;;;;;;;13.20;7.95;;;;;;;;;;5032642;28;20175;-78
2023/07/22 01:46:35;;;;;;;11.93;7.32;;;;;;;;;;5032251;28;20029;-78
2023/07/22 01:49:01;;;;;;;11.70;7.07;;;;;;;;;;5032541;28;20087;-78
2023/07/22 01:51:27;;;;;;;11.25;7.25;;;;;;;;;;5014935;28;20428;-78
2023/07/22 01:53:53;;;;;;;11.73;7.28;;;;;;;;;;5032695;28;20028;-78
2023/07/22 01:56:20;;;;;;;10.93;7.00;;;;;;;;;;5032626;28;20049;-78
2023/07/22 01:58:45;;;;;;;11.00;6.68;;;;;;;;;;5031024;28;20576;-78
2023/07/22 02:01:13;;;;;;;12.98;7.40;;;;;;;;;;5014807;28;20112;-78
2023/07/22 02:03:40;;;;;;;11.68;7.10;;;;;;;;;;5025138;28;20033;-77
2023/07/22 02:06:05;;;;;;;10.07;6.88;;;;;;;;;;5032303;28;20029;-78
2023/07/22 02:08:31;;;;;;;11.77;6.78;;;;;;;;;;5031170;28;20051;-78
2023/07/22 02:11:04;;;;;;;13.57;7.85;;;;;;;;;;5031355;28;20028;-78
2023/07/22 02:13:30;;;;;;;11.82;7.18;;;;;;;;;;5032303;28;20057;-78
2023/07/22 02:15:56;;;;;;;11.88;7.15;;;;;;;;;;5032512;28;20437;-78
2023/07/22 02:18:21;;;;;;;11.43;6.70;;;;;;;;;;5032247;28;20087;-78
2023/07/22 02:20:46;;;;;;;13.40;7.53;;;;;;;;;;5026589;28;20025;-78
2023/07/22 02:23:12;;;;;;;12.13;7.80;;;;;;;;;;5027920;28;20041;-78
2023/07/22 02:25:37;;;;;;;12.88;7.53;;;;;;;;;;5031075;28;20030;-78
2023/07/22 02:28:03;;;;;;;10.13;6.75;;;;;;;;;;5030884;28;20022;-78
2023/07/22 02:30:29;;;;;;;9.60;5.85;;;;;;;;;;5030851;28;20091;-78
2023/07/22 02:32:54;;;;;;;11.10;6.82;;;;;;;;;;5035485;28;20083;-78
2023/07/22 02:35:19;;;;;;;12.20;7.10;;;;;;;;;;5036385;28;20032;-78
2023/07/22 02:37:45;;;;;;;12.10;7.10;;;;;;;;;;5035216;28;20540;-78
2023/07/22 02:40:11;;;;;;;11.73;7.00;;;;;;;;;;5036314;28;20128;-78
2023/07/22 02:42:37;;;;;;;11.43;6.55;;;;;;;;;;5034749;28;20049;-78
2023/07/22 02:45:04;;;;;;;11.88;7.10;;;;;;;;;;5036191;28;20029;-78
2023/07/22 02:47:29;;;;;;;12.30;7.45;;;;;;;;;;5034987;28;20029;-78
2023/07/22 02:49:54;;;;;;;11.48;7.18;;;;;;;;;;5034552;28;20025;-78
2023/07/22 02:52:20;;;;;;;12.77;7.28;;;;;;;;;;5035952;28;20393;-78
2023/07/22 02:55:08;;;;;;;11.52;7.28;;;;;;;;;;5032506;28;20076;-77
2023/07/22 02:57:34;;;;;;;12.32;6.95;;;;;;;;;;5034707;28;20033;-77
2023/07/22 03:00:00;;;;;;;12.63;7.13;;;;;;;;;;5034358;28;20481;-78
2023/07/22 03:02:25;;;;;;;10.68;6.90;;;;;;;;;;5036124;28;20060;-78
2023/07/22 03:04:50;;;;;;;12.55;7.28;;;;;;;;;;5035488;28;20047;-78
2023/07/22 03:07:16;;;;;;;11.70;7.30;;;;;;;;;;5035445;28;20083;-78
2023/07/22 03:09:42;;;;;;;15.40;7.63;;;;;;;;;;5035384;28;20028;-78
2023/07/22 03:12:07;;;;;;;12.23;6.70;;;;;;;;;;5033228;28;20032;-78
2023/07/22 03:14:36;;;;;;;12.13;7.70;;;;;;;;;;5029506;28;20034;-78
2023/07/22 03:17:03;;;;;;;12.27;7.20;;;;;;;;;;5034353;28;20148;-78
2023/07/22 03:19:28;;;;;;;10.98;6.82;;;;;;;;;;5034075;28;20013;-78
2023/07/22 03:21:54;;;;;;;11.68;7.55;;;;;;;;;;5035578;28;20032;-77
2023/07/22 03:24:19;;;;;;;11.48;7.35;;;;;;;;;;5034133;28;20090;-78
2023/07/22 03:26:45;;;;;;;13.38;7.00;;;;;;;;;;5035454;28;20022;-78
2023/07/22 03:29:10;;;;;;;11.23;6.70;;;;;;;;;;5026626;28;20069;-78
2023/07/22 03:31:35;;;;;;;11.13;6.95;;;;;;;;;;5037579;28;20033;-78
2023/07/22 03:34:01;;;;;;;13.52;7.80;;;;;;;;;;5035023;28;20033;-78
2023/07/22 03:36:26;;;;;;;13.00;7.75;;;;;;;;;;5033951;28;20397;-78
2023/07/22 03:38:52;;;;;;;12.93;7.53;;;;;;;;;;5033912;28;20108;-78
2023/07/22 03:41:17;;;;;;;10.95;6.80;;;;;;;;;;5033691;28;20469;-78
2023/07/22 03:43:43;;;;;;;12.27;7.65;;;;;;;;;;5033791;28;20021;-78
2023/07/22 03:46:09;;;;;;;10.93;7.28;;;;;;;;;;5033557;28;20021;-78
2023/07/22 03:48:34;;;;;;;14.85;8.07;;;;;;;;;;5035143;28;20103;-78
2023/07/22 03:51:00;;;;;;;14.18;7.68;;;;;;;;;;5034640;28;20036;-78
2023/07/22 03:53:25;;;;;;;13.65;7.75;;;;;;;;;;5035038;28;20026;-78
2023/07/22 03:55:50;;;;;;;14.57;8.02;;;;;;;;;;5033672;28;20112;-78
2023/07/22 03:58:16;;;;;;;14.57;7.72;;;;;;;;;;5033516;28;20473;-78
2023/07/22 04:00:42;;;;;;;12.85;7.65;;;;;;;;;;5034777;28;20116;-78
2023/07/22 04:03:07;;;;;;;12.50;7.90;;;;;;;;;;5033429;28;20086;-78
2023/07/22 04:05:33;;;;;;;12.65;7.68;;;;;;;;;;5034220;28;20017;-78
2023/07/22 04:07:58;;;;;;;15.07;7.90;;;;;;;;;;5034782;28;20021;-78
2023/07/22 04:10:23;;;;;;;11.48;7.65;;;;;;;;;;5034398;28;20052;-78
2023/07/22 04:12:49;;;;;;;14.65;8.18;;;;;;;;;;5034659;28;20397;-77
2023/07/22 04:15:15;;;;;;;12.80;7.53;;;;;;;;;;5034286;28;20079;-78
2023/07/22 04:17:40;;;;;;;11.23;7.25;;;;;;;;;;5033289;28;20459;-77
2023/07/22 04:20:08;;;;;;;14.27;7.57;;;;;;;;;;5030499;28;20017;-78
2023/07/22 04:22:33;;;;;;;12.60;7.35;;;;;;;;;;5033021;28;20026;-78
2023/07/22 04:24:59;;;;;;;11.85;7.85;;;;;;;;;;5034444;28;20013;-78
2023/07/22 04:27:26;;;;;;;12.55;7.60;;;;;;;;;;5034274;28;20021;-78
2023/07/22 04:29:52;;;;;;;13.05;7.50;;;;;;;;;;5033890;28;20053;-77
2023/07/22 04:32:17;;;;;;;12.90;7.82;;;;;;;;;;5032988;28;20457;-78
2023/07/22 04:34:43;;;;;;;12.70;8.27;;;;;;;;;;5034012;28;20060;-77
2023/07/22 04:37:08;;;;;;;12.13;7.35;;;;;;;;;;5032075;28;20029;-77
2023/07/22 04:39:34;;;;;;;13.07;8.40;;;;;;;;;;5003805;28;20021;-78
2023/07/22 04:41:59;;;;;;;12.00;7.30;;;;;;;;;;5032845;28;20087;-79
2023/07/22 04:44:25;;;;;;;13.30;7.97;;;;;;;;;;5032377;28;20163;-78
2023/07/22 04:46:50;;;;;;;13.00;8.05;;;;;;;;;;5033863;28;20112;-78
2023/07/22 04:49:17;;;;;;;11.45;7.63;;;;;;;;;;5032580;28;20481;-77
2023/07/22 04:51:46;;;;;;;11.23;7.63;;;;;;;;;;5033653;28;20465;-78
2023/07/22 04:54:12;;;;;;;11.95;8.02;;;;;;;;;;5029422;28;20496;-78
2023/07/22 04:56:38;;;;;;;12.00;7.78;;;;;;;;;;5032501;28;20112;-78
2023/07/22 04:59:04;;;;;;;15.02;8.27;;;;;;;;;;5032238;28;20024;-78
2023/07/22 05:01:29;;;;;;;11.18;7.50;;;;;;;;;;5033706;28;20392;-77
2023/07/22 05:03:54;;;;;;;10.43;7.40;;;;;;;;;;5033444;28;20031;-77
2023/07/22 05:06:20;;;;;;;11.60;7.35;;;;;;;;;;5033240;28;20025;-77
2023/07/22 05:08:46;;;;;;;10.85;7.28;;;;;;;;;;5030783;28;20021;-78
2023/07/22 05:11:11;;;;;;;12.00;7.40;;;;;;;;;;5030540;28;20025;-78
2023/07/22 05:13:36;;;;;;;11.90;7.95;;;;;;;;;;5032039;28;20044;-77
2023/07/22 05:16:02;;;;;;;12.38;7.65;;;;;;;;;;5031929;28;20026;-77
2023/07/22 05:18:27;;;;;;;13.93;7.68;;;;;;;;;;5033422;28;20029;-78
2023/07/22 05:20:53;;;;;;;12.35;7.82;;;;;;;;;;5033218;28;20026;-77
2023/07/22 05:23:18;;;;;;;12.30;7.43;;;;;;;;;;5033061;28;20028;-78
2023/07/22 05:25:43;;;;;;;11.85;7.65;;;;;;;;;;5032000;28;20037;-78
2023/07/22 05:28:09;;;;;;;11.57;7.35;;;;;;;;;;5016301;28;20039;-78
2023/07/22 05:30:34;;;;;;;13.23;7.80;;;;;;;;;;5033037;28;20025;-78
2023/07/22 05:33:00;;;;;;;11.27;7.50;;;;;;;;;;5032734;28;20040;-78
2023/07/22 05:35:25;;;;;;;14.20;8.10;;;;;;;;;;5033162;28;20067;-78
2023/07/22 05:37:50;;;;;;;12.43;7.38;;;;;;;;;;5031809;28;20087;-78
2023/07/22 05:40:16;;;;;;;11.23;7.72;;;;;;;;;;5031710;28;20171;-78
2023/07/22 05:42:41;;;;;;;11.98;7.15;;;;;;;;;;5031445;28;20033;-78
2023/07/22 05:45:07;;;;;;;11.77;7.50;;;;;;;;;;5024231;28;20025;-78
2023/07/22 05:47:32;;;;;;;14.77;7.82;;;;;;;;;;5030617;28;20060;-78
2023/07/22 05:49:58;;;;;;;13.20;7.78;;;;;;;;;;5032813;28;20037;-77
2023/07/22 05:52:23;;;;;;;11.85;7.38;;;;;;;;;;5031413;28;20021;-78
2023/07/22 05:54:49;;;;;;;11.95;7.15;;;;;;;;;;5032764;28;20025;-78
2023/07/22 05:57:15;;;;;;;14.70;7.78;;;;;;;;;;5032496;28;20017;-78
2023/07/22 05:59:40;;;;;;;11.35;7.07;;;;;;;;;;5031496;28;20131;-78
2023/07/22 06:02:07;;;;;;;13.57;7.50;;;;;;;;;;5031127;28;20022;-78
2023/07/22 06:04:33;;;;;;;11.90;6.80;;;;;;;;;;5031355;28;20032;-78
2023/07/22 06:06:58;;;;;;;12.05;7.53;;;;;;;;;;5031689;28;20021;-77
2023/07/22 06:09:24;;;;;;;13.18;8.02;;;;;;;;;;5031350;28;20026;-78
2023/07/22 06:11:49;;;;;;;11.48;7.35;;;;;;;;;;5030898;28;20017;-78
2023/07/22 06:14:15;;;;;;;13.18;7.60;;;;;;;;;;5031343;28;20017;-78
2023/07/22 06:16:40;;;;;;;11.93;7.45;;;;;;;;;;5032136;28;20017;-78
2023/07/22 06:19:05;;;;;;;13.23;8.00;;;;;;;;;;5031818;28;20029;-78
2023/07/22 06:21:31;;;;;;;13.88;8.20;;;;;;;;;;5014461;28;20476;-77
2023/07/22 06:23:56;;;;;;;14.77;8.65;;;;;;;;;;5031232;28;20032;-78
2023/07/22 06:26:22;;;;;;;14.05;8.38;;;;;;;;;;5014401;28;20029;-78
2023/07/22 06:28:47;;;;;;;12.75;7.63;;;;;;;;;;5030744;28;20121;-78
2023/07/22 06:31:13;;;;;;;17.73;9.00;;;;;;;;;;5030868;28;20018;-78
2023/07/22 06:33:38;;;;;;;12.52;7.43;;;;;;;;;;5035787;28;20095;-78
2023/07/22 06:36:04;;;;;;;15.05;8.73;;;;;;;;;;5030517;28;20433;-78
2023/07/22 06:38:29;;;;;;;16.83;8.48;;;;;;;;;;5032284;28;20485;-78
2023/07/22 06:40:55;;;;;;;12.70;8.45;;;;;;;;;;5032027;28;20048;-78
2023/07/22 06:43:20;;;;;;;15.73;8.63;;;;;;;;;;5031145;28;20064;-78
2023/07/22 06:45:46;;;;;;;14.15;8.27;;;;;;;;;;5031884;28;20048;-78
2023/07/22 06:48:11;;;;;;;15.18;8.75;;;;;;;;;;5032314;28;20021;-79
2023/07/22 06:50:37;;;;;;;13.60;8.25;;;;;;;;;;5030543;28;20033;-78
2023/07/22 06:53:02;;;;;;;14.02;8.30;;;;;;;;;;5025473;28;20022;-78
2023/07/22 06:55:28;;;;;;;15.13;8.00;;;;;;;;;;5030871;28;20025;-79
2023/07/22 06:57:56;;;;;;;14.60;8.80;;;;;;;;;;5031995;28;20024;-78
2023/07/22 07:00:21;;;;;;;12.73;7.68;;;;;;;;;;5030789;28;20120;-78
2023/07/22 07:02:46;;;;;;;13.77;7.65;;;;;;;;;;5030344;28;20116;-78
2023/07/22 07:05:12;;;;;;;15.07;8.25;;;;;;;;;;5030799;28;20469;-79
2023/07/22 07:07:39;;;;;;;11.90;7.53;;;;;;;;;;5031354;28;20030;-78
2023/07/22 07:10:05;;;;;;;12.10;7.20;;;;;;;;;;5025425;28;20045;-77
2023/07/22 07:12:31;;;;;;;17.50;8.68;;;;;;;;;;5030412;28;20032;-79
2023/07/22 07:14:56;;;;;;;15.10;7.80;;;;;;;;;;5031993;28;20025;-78
2023/07/22 07:17:22;;;;;;;16.52;8.90;;;;;;;;;;5032434;28;20075;-78
2023/07/22 07:19:47;;;;;;;13.38;7.32;;;;;;;;;;5035418;28;20025;-78
2023/07/22 07:22:13;;;;;;;12.77;7.78;;;;;;;;;;5035673;28;20075;-79
2023/07/22 07:24:38;;;;;;;15.70;8.20;;;;;;;;;;5034088;28;20708;-78
2023/07/22 07:27:04;;;;;;;14.13;7.47;;;;;;;;;;5034631;28;20048;-78
2023/07/22 07:29:29;;;;;;;14.95;7.85;;;;;;;;;;5033723;28;20025;-78
2023/07/22 07:31:55;;;;;;;12.43;8.07;;;;;;;;;;5035379;28;20120;-78
2023/07/22 07:34:20;;;;;;;13.68;8.15;;;;;;;;;;5033821;28;20025;-78
2023/07/22 07:36:45;;;;;;;15.20;8.35;;;;;;;;;;5033936;28;20022;-78
2023/07/22 07:39:11;;;;;;;11.73;7.20;;;;;;;;;;5035243;28;20234;-79
2023/07/22 07:41:37;;;;;;;14.35;7.57;;;;;;;;;;5033820;28;20388;-78
2023/07/22 07:44:03;;;;;;;15.13;7.72;;;;;;;;;;5033470;28;20100;-79
2023/07/22 07:46:29;;;;;;;17.33;7.97;;;;;;;;;;5033704;28;20028;-78
2023/07/22 07:49:00;;;;;;;12.52;7.47;;;;;;;;;;5034840;28;20021;-79
2023/07/22 07:51:27;;;;;;;14.38;7.75;;;;;;;;;;5034954;28;20025;-79
2023/07/22 07:53:54;;;;;;;12.80;7.20;;;;;;;;;;5033707;28;20034;-79
2023/07/22 07:56:20;;;;;;;14.43;7.68;;;;;;;;;;5025151;28;20488;-78
2023/07/22 07:58:47;;;;;;;14.40;7.72;;;;;;;;;;5034896;28;20507;-79
2023/07/22 08:01:13;;;;;;;12.10;7.03;;;;;;;;;;5033986;28;20503;-79
2023/07/22 08:03:41;;;;;;;12.85;7.60;;;;;;;;;;5034463;28;20030;-78
2023/07/22 08:06:06;;;;;;;13.48;7.97;;;;;;;;;;5034421;28;20497;-79
2023/07/22 08:08:32;;;;;;;16.20;8.38;;;;;;;;;;5033252;28;20032;-78
2023/07/22 08:11:02;;;;;;;13.35;7.18;;;;;;;;;;5033242;28;20017;-78
2023/07/22 08:13:29;;;;;;;13.98;7.22;;;;;;;;;;5034567;28;20025;-78
2023/07/22 08:15:55;;;;;;;13.68;7.03;;;;;;;;;;5023376;28;20025;-78
2023/07/22 08:18:20;;;;;;;12.50;7.13;;;;;;;;;;5027397;28;20037;-78
2023/07/22 08:20:47;;;;;;;11.30;6.68;;;;;;;;;;5033162;28;20026;-78
2023/07/22 08:23:13;;;;;;;12.65;7.72;;;;;;;;;;5034617;28;20108;-79
2023/07/22 08:25:39;;;;;;;11.85;6.63;;;;;;;;;;5034270;28;20017;-78
2023/07/22 08:28:04;;;;;;;13.77;7.60;;;;;;;;;;5034176;28;20056;-79
2023/07/22 08:30:30;;;;;;;12.23;6.97;;;;;;;;;;5032007;28;20065;-78
2023/07/22 08:32:55;;;;;;;11.70;6.47;;;;;;;;;;5032915;28;20452;-78
2023/07/22 08:35:22;;;;;;;13.43;7.32;;;;;;;;;;5032228;28;20033;-78
2023/07/22 08:37:47;;;;;;;11.63;6.95;;;;;;;;;;5032910;28;20021;-78
2023/07/22 08:40:13;;;;;;;12.38;6.97;;;;;;;;;;5034053;28;20021;-78
2023/07/22 08:42:40;;;;;;;12.82;7.10;;;;;;;;;;5033996;28;20030;-78
2023/07/22 08:45:09;;;;;;;13.80;6.72;;;;;;;;;;5032548;28;20028;-78
2023/07/22 08:47:38;;;;;;;13.35;6.75;;;;;;;;;;5033738;28;20037;-78
2023/07/22 08:50:06;;;;;;;10.85;6.50;;;;;;;;;;5032587;28;20040;-78
2023/07/22 08:52:33;;;;;;;12.88;6.72;;;;;;;;;;5031881;28;20079;-78
2023/07/22 08:55:00;;;;;;;10.93;5.93;;;;;;;;;;5032557;28;20053;-78
2023/07/22 08:57:27;;;;;;;10.85;6.25;;;;;;;;;;5033729;28;20025;-78
2023/07/22 08:59:52;;;;;;;11.35;6.10;;;;;;;;;;5032533;28;20033;-78
2023/07/22 09:02:18;;;;;;;11.77;5.55;;;;;;;;;;5032148;28;20033;-78
2023/07/22 09:04:45;;;;;;;10.57;5.88;;;;;;;;;;5033366;28;20108;-78
2023/07/22 09:07:12;;;;;;;11.75;5.88;;;;;;;;;;5031997;28;20069;-78
2023/07/22 09:09:38;;;;;;;11.65;5.95;;;;;;;;;;5032107;28;20021;-78
2023/07/22 09:12:04;;;;;;;9.15;5.70;;;;;;;;;;5033162;28;20021;-78
2023/07/22 09:14:31;;;;;;;10.32;5.35;;;;;;;;;;5032156;28;20473;-78
2023/07/22 09:16:58;;;;;;;9.60;5.43;;;;;;;;;;5033508;28;20076;-78
2023/07/22 09:19:23;;;;;;;10.02;5.25;;;;;;;;;;5032019;28;20053;-78
2023/07/22 09:21:49;;;;;;;10.95;6.05;;;;;;;;;;5032149;28;20434;-78
2023/07/22 09:24:25;;;;;;;11.85;6.60;;;;;;;;;;5031764;28;20025;-78
2023/07/22 09:26:51;;;;;;;10.85;5.07;;;;;;;;;;5029458;28;20223;-78
2023/07/22 09:29:17;;;;;;;8.75;5.13;;;;;;;;;;5031900;28;20038;-78
2023/07/22 09:31:54;;;;;;;13.77;5.13;;;;;;;;;;5031780;28;20025;-78
2023/07/22 09:34:19;;;;;;;9.55;4.90;;;;;;;;;;5032767;28;20029;-78
2023/07/22 09:36:54;;;;;;;8.80;5.25;;;;;;;;;;5039280;28;20029;-78
2023/07/22 09:39:20;;;;;;;10.65;5.10;;;;;;;;;;5033047;28;20029;-78
2023/07/22 09:41:46;;;;;;;8.57;4.40;;;;;;;;;;5032964;28;20018;-78
2023/07/22 09:44:14;;;;;;;8.07;4.50;;;;;;;;;;5031382;28;20040;-79
2023/07/22 09:46:40;;;;;;;6.38;3.83;;;;;;;;;;5031615;28;20150;-78
2023/07/22 09:49:08;;;;;;;8.35;4.32;;;;;;;;;;5031278;28;20438;-78
2023/07/22 09:51:40;;;;;;;7.75;4.65;;;;;;;;;;5032882;28;20029;-78
2023/07/22 09:54:06;;;;;;;8.70;4.38;;;;;;;;;;5031277;28;20064;-78
2023/07/22 09:56:42;;;;;;;7.53;3.67;;;;;;;;;;5033032;28;20076;-78
2023/07/22 09:59:10;;;;;;;9.38;4.25;;;;;;;;;;5032546;28;20025;-79
2023/07/22 10:01:38;;;;;;;11.35;3.85;;;;;;;;;;5024521;28;20528;-78
2023/07/22 10:04:04;;;;;;;7.00;3.75;;;;;;;;;;5031445;28;20021;-78
2023/07/22 10:06:31;;;;;;;9.27;3.95;;;;;;;;;;5032643;28;20033;-78
2023/07/22 10:09:03;;;;;;;7.82;3.70;;;;;;;;;;5031146;28;20025;-78
2023/07/22 10:11:29;;;;;;;10.43;4.25;;;;;;;;;;5025397;28;20473;-78
2023/07/22 10:13:55;;;;;;;6.00;3.65;;;;;;;;;;5032290;28;20287;-78
2023/07/22 10:16:23;;;;;;;7.47;3.40;;;;;;;;;;5031196;28;20065;-78
2023/07/22 10:18:49;;;;;;;6.40;3.50;;;;;;;;;;5032162;28;20493;-78
2023/07/22 10:21:15;;;;;;;5.38;3.33;;;;;;;;;;5031304;28;20017;-78
2023/07/22 10:23:41;;;;;;;7.60;3.33;;;;;;;;;;5030955;28;20022;-78
2023/07/22 10:26:07;;;;;;;6.35;3.10;;;;;;;;;;5032381;28;20147;-78
2023/07/22 10:28:33;;;;;;;9.55;3.55;;;;;;;;;;5030754;28;20105;-78
2023/07/22 10:30:59;;;;;;;5.32;3.05;;;;;;;;;;5030971;28;20021;-78
2023/07/22 10:33:25;;;;;;;5.88;3.30;;;;;;;;;;5030854;28;20020;-78
2023/07/22 10:36:07;;;;;;;6.18;3.67;;;;;;;;;;5032292;28;20520;-78
2023/07/22 10:38:37;;;;;;;6.40;3.50;;;;;;;;;;5029709;28;20472;-77
2023/07/22 10:41:12;;;;;;;6.15;3.30;;;;;;;;;;5032661;28;20460;-78
2023/07/22 10:43:39;;;;;;;5.22;3.20;;;;;;;;;;5030997;28;20055;-78
2023/07/22 10:46:12;;;;;;;4.63;2.88;;;;;;;;;;5031119;28;20104;-78
2023/07/22 10:48:41;;;;;;;6.13;3.20;;;;;;;;;;5030762;28;20440;-78
2023/07/22 10:51:11;;;;;;;6.47;3.00;;;;;;;;;;5030648;28;20025;-77
2023/07/22 10:53:50;;;;;;;7.00;3.20;;;;;;;;;;5033636;28;20032;-78
2023/07/22 10:56:19;;;;;;;5.28;2.70;;;;;;;;;;5030782;28;20033;-78
2023/07/22 10:58:45;;;;;;;7.15;3.17;;;;;;;;;;5034446;28;20528;-78
2023/07/22 11:01:28;;;;;;;5.40;2.90;;;;;;;;;;5036023;28;20113;-78
2023/07/22 11:04:13;;;;;;;5.57;2.67;;;;;;;;;;5032711;28;20028;-78
2023/07/22 11:06:52;;;;;;;4.85;2.70;;;;;;;;;;5034894;28;20029;-78
2023/07/22 11:09:27;;;;;;;5.05;2.53;;;;;;;;;;5032007;28;20057;-78
2023/07/22 11:12:05;;;;;;;5.07;2.97;;;;;;;;;;5035741;28;20025;-78
2023/07/22 11:14:37;;;;;;;5.05;2.70;;;;;;;;;;5034129;28;20036;-78
2023/07/22 11:17:05;;;;;;;4.32;2.22;;;;;;;;;;5034611;28;20027;-78
2023/07/22 11:19:31;;;;;;;5.00;2.20;;;;;;;;;;5035583;28;20032;-78
2023/07/22 11:21:56;;;;;;;5.20;2.17;;;;;;;;;;5035565;28;20037;-78
2023/07/22 11:24:23;;;;;;;5.18;2.08;;;;;;;;;;5032498;28;20108;-78
2023/07/22 11:26:50;;;;;;;4.70;2.17;;;;;;;;;;5032512;28;20675;-78
2023/07/22 11:29:15;;;;;;;4.88;2.00;;;;;;;;;;5033705;28;20370;-78
2023/07/22 11:31:45;;;;;;;5.00;1.70;;;;;;;;;;5034005;28;20036;-77
2023/07/22 11:34:18;;;;;;;4.63;2.00;;;;;;;;;;5033903;28;20021;-78
2023/07/22 11:36:44;;;;;;;3.40;1.95;;;;;;;;;;5034000;28;20079;-78
2023/07/22 11:39:16;;;;;;;4.00;1.85;;;;;;;;;;5035278;28;20381;-78
2023/07/22 11:41:42;;;;;;;4.07;2.13;;;;;;;;;;5024506;28;20030;-78
2023/07/22 11:44:09;;;;;;;5.15;2.00;;;;;;;;;;5033801;28;20041;-78
2023/07/22 11:46:46;;;;;;;5.32;2.08;;;;;;;;;;5034196;28;20366;-78
2023/07/22 11:49:11;;;;;;;3.63;1.77;;;;;;;;;;5033584;28;20091;-78
2023/07/22 11:51:41;;;;;;;3.78;1.60;;;;;;;;;;5035082;28;20029;-78
2023/07/22 11:54:08;;;;;;;3.72;1.65;;;;;;;;;;5033760;28;20025;-78
2023/07/22 11:56:33;;;;;;;5.20;1.70;;;;;;;;;;5034863;28;20142;-78
2023/07/22 11:58:58;;;;;;;5.60;2.00;;;;;;;;;;5033387;28;20155;-78
2023/07/22 12:01:32;;;;;;;5.70;1.98;;;;;;;;;;5034698;28;20099;-78
2023/07/22 12:03:57;;;;;;;3.72;2.03;;;;;;;;;;5031872;28;20041;-78
2023/07/22 12:06:26;;;;;;;3.50;2.20;;;;;;;;;;5033252;28;20026;-78
2023/07/22 12:08:52;;;;;;;4.38;1.83;;;;;;;;;;5034506;28;20028;-78
2023/07/22 12:11:23;;;;;;;5.97;1.70;;;;;;;;;;5033301;28;20030;-78
2023/07/22 12:14:13;;;;;;;3.70;1.85;;;;;;;;;;5033207;28;20428;-78
2023/07/22 12:16:41;;;;;;;6.28;1.90;;;;;;;;;;5024875;28;20508;-79
2023/07/22 12:19:08;;;;;;;2.67;1.63;;;;;;;;;;5033235;28;20056;-78
2023/07/22 12:21:34;;;;;;;4.13;2.00;;;;;;;;;;5033255;28;20397;-77
2023/07/22 12:24:00;;;;;;;3.20;1.70;;;;;;;;;;5033225;28;20026;-78
2023/07/22 12:26:25;;;;;;;3.67;1.60;;;;;;;;;;5033130;28;20396;-77
2023/07/22 12:28:51;;;;;;;2.97;1.67;;;;;;;;;;5032481;28;20117;-78
2023/07/22 12:31:16;;;;;;;4.85;2.05;;;;;;;;;;5032812;28;20520;-78
2023/07/22 12:33:42;;;;;;;5.45;1.77;;;;;;;;;;5016437;28;20374;-78
2023/07/22 12:36:07;;;;;;;4.78;1.88;;;;;;;;;;5033102;28;20018;-78
2023/07/22 12:38:33;;;;;;;7.10;2.10;;;;;;;;;;5030026;28;20036;-78
2023/07/22 12:40:58;;;;;;;5.50;1.83;;;;;;;;;;5034004;28;20093;-78
2023/07/22 12:43:24;;;;;;;3.15;1.80;;;;;;;;;;5033240;28;20112;-78
2023/07/22 12:45:50;;;;;;;5.22;2.28;;;;;;;;;;5028214;28;20117;-78
2023/07/22 12:48:17;;;;;;;6.18;1.90;;;;;;;;;;5032924;28;20116;-78
2023/07/22 12:50:42;;;;;;;3.13;1.60;;;;;;;;;;5030690;28;20049;-78
2023/07/22 12:53:08;;;;;;;8.98;2.67;;;;;;;;;;5033936;28;20068;-78
2023/07/22 12:55:33;;;;;;;3.35;1.75;;;;;;;;;;5032891;28;20021;-78
2023/07/22 12:57:59;;;;;;;4.82;2.22;;;;;;;;;;5015882;28;20026;-78
2023/07/22 13:00:24;;;;;;;4.75;1.95;;;;;;;;;;5032267;28;20013;-78
2023/07/22 13:02:49;;;;;;;4.40;1.90;;;;;;;;;;5033432;28;20029;-78
2023/07/22 13:05:15;;;;;;;4.93;1.90;;;;;;;;;;5033518;28;20024;-78
2023/07/22 13:07:40;;;;;;;3.25;1.60;;;;;;;;;;5036488;28;20052;-78
2023/07/22 13:10:10;;;;;;;4.45;1.80;;;;;;;;;;5015824;28;20036;-78
2023/07/22 13:12:39;;;;;;;7.35;1.98;;;;;;;;;;5029611;28;20028;-78
2023/07/22 13:15:05;;;;;;;4.10;1.83;;;;;;;;;;5032187;28;20032;-78
2023/07/22 13:17:31;;;;;;;3.88;1.80;;;;;;;;;;5031937;28;20021;-78
2023/07/22 13:19:56;;;;;;;4.85;1.80;;;;;;;;;;5031945;28;20026;-78
2023/07/22 13:22:22;;;;;;;4.05;1.92;;;;;;;;;;5032147;28;20087;-78
2023/07/22 13:24:47;;;;;;;4.30;2.08;;;;;;;;;;5024845;28;20508;-78
2023/07/22 13:27:13;;;;;;;3.13;1.85;;;;;;;;;;5033097;28;20385;-78
2023/07/22 13:29:38;;;;;;;4.13;1.98;;;;;;;;;;5032798;28;20072;-78
2023/07/22 13:32:04;;;;;;;4.60;2.05;;;;;;;;;;5031890;28;20021;-78
2023/07/22 13:34:29;;;;;;;4.82;1.95;;;;;;;;;;5031769;28;20041;-78
2023/07/22 13:36:55;;;;;;;4.53;2.00;;;;;;;;;;5033093;28;20112;-77
2023/07/22 13:39:20;;;;;;;4.80;2.20;;;;;;;;;;5031553;28;20076;-77
2023/07/22 13:41:45;;;;;;;4.93;2.22;;;;;;;;;;5032137;28;20048;-78
2023/07/22 13:44:11;;;;;;;6.70;2.55;;;;;;;;;;5032843;28;20026;-78
2023/07/22 13:46:36;;;;;;;5.50;2.72;;;;;;;;;;5033090;28;20042;-78
2023/07/22 13:49:02;;;;;;;5.22;2.47;;;;;;;;;;5031598;28;20555;-78
2023/07/22 13:51:27;;;;;;;6.53;3.72;;;;;;;;;;5032599;28;20021;-78
2023/07/22 13:53:54;;;;;;;6.47;3.40;;;;;;;;;;5031389;28;20061;-77
2023/07/22 13:56:20;;;;;;;5.85;3.33;;;;;;;;;;5015165;28;20033;-79
2023/07/22 13:58:45;;;;;;;4.80;2.92;;;;;;;;;;5029165;28;20094;-77
2023/07/22 14:01:10;;;;;;;6.13;2.70;;;;;;;;;;5031163;28;20113;-78
2023/07/22 14:03:36;;;;;;;5.28;2.65;;;;;;;;;;5031674;28;20492;-78
2023/07/22 14:06:01;;;;;;;7.25;2.50;;;;;;;;;;5031088;28;20026;-77
2023/07/22 14:08:26;;;;;;;7.07;3.38;;;;;;;;;;5031169;28;20029;-78
2023/07/22 14:10:52;;;;;;;7.22;2.90;;;;;;;;;;5031004;28;20036;-78
2023/07/22 14:13:18;;;;;;;5.40;2.33;;;;;;;;;;5032445;28;20079;-78
2023/07/22 14:15:43;;;;;;;5.75;2.30;;;;;;;;;;5027732;28;20029;-78
2023/07/22 14:18:09;;;;;;;5.30;2.60;;;;;;;;;;5031978;28;20104;-77
2023/07/22 14:20:34;;;;;;;4.97;2.50;;;;;;;;;;5030852;28;20036;-78
2023/07/22 14:22:59;;;;;;;4.93;2.60;;;;;;;;;;5031233;28;20432;-77
2023/07/22 14:25:25;;;;;;;5.00;2.20;;;;;;;;;;5032361;28;20044;-77
2023/07/22 14:27:50;;;;;;;4.20;2.60;;;;;;;;;;5030219;28;20120;-78
2023/07/22 14:30:16;;;;;;;5.07;2.10;;;;;;;;;;5031096;28;20033;-77
2023/07/22 14:32:41;;;;;;;4.70;2.22;;;;;;;;;;5030028;28;20036;-78